createdAt,value
2023-01-28T00:01:35.556Z,100768.22
2023-01-28T00:06:37.779Z,100757.53
2023-01-28T00:11:39.452Z,100760.59
2023-01-28T00:16:41.132Z,100761.34
2023-01-28T00:21:43.125Z,100763.06
2023-01-28T00:26:45.061Z,100762.13
2023-01-28T00:31:46.819Z,100768.91
2023-01-28T00:36:57.314Z,100764.03
2023-01-28T00:41:58.996Z,100764.88
2023-01-28T00:47:00.997Z,100778.16
2023-01-28T00:52:03.014Z,100770.75
2023-01-28T00:57:04.765Z,100772.25
2023-01-28T01:02:12.599Z,100776.78
2023-01-28T01:07:14.450Z,100771.53
2023-01-28T01:12:16.133Z,100770.31
2023-01-28T01:17:18.259Z,100773.13
2023-01-28T01:22:19.873Z,100775.66
2023-01-28T01:27:21.637Z,100784.78
2023-01-28T01:32:23.385Z,100789.28
2023-01-28T01:37:25.399Z,100793.03
2023-01-28T01:42:27.048Z,100791.97
2023-01-28T01:47:55.141Z,100788.63
2023-01-28T01:53:06.975Z,100791.22
2023-01-28T01:58:13.571Z,100780.44
2023-01-28T02:03:20.015Z,100784.59
2023-01-28T02:08:21.996Z,100774.16
2023-01-28T02:13:29.202Z,100780.66
2023-01-28T02:18:33.850Z,100775.81
2023-01-28T02:24:13.118Z,100770.94
2023-01-28T02:29:26.499Z,100783.47
2023-01-28T02:34:40.894Z,100789.84
2023-01-28T02:39:48.277Z,100790.72
2023-01-28T02:44:50.296Z,100784.84
2023-01-28T02:49:56.422Z,100796.22
2023-01-28T02:55:13.517Z,100794.25
2023-01-28T03:00:23.009Z,100795.16
2023-01-28T03:06:02.971Z,100801.22
2023-01-28T03:11:23.713Z,100797.09
2023-01-28T03:16:43.834Z,100803.19
2023-01-28T03:22:05.049Z,100803.69
2023-01-28T03:27:40.766Z,100811.72
2023-01-28T03:33:04.781Z,100803.56
2023-01-28T03:38:18.248Z,100811.78
2023-01-28T03:43:20.656Z,100829.59
2023-01-28T03:48:27.187Z,100821.94
2023-01-28T03:53:29.040Z,100833.03
2023-01-28T03:58:52.955Z,100836.50
2023-01-28T04:03:55.085Z,100839.88
2023-01-28T04:09:00.883Z,100842.53
2023-01-28T04:14:16.826Z,100844.25
2023-01-28T04:19:28.855Z,100852.50
2023-01-28T04:24:31.866Z,100854.53
2023-01-28T04:29:33.724Z,100848.88
2023-01-28T04:34:53.170Z,100851.25
2023-01-28T04:40:12.902Z,100859.00
2023-01-28T04:45:28.399Z,100858.88
2023-01-28T04:50:53.238Z,100854.56
2023-01-28T04:56:15.146Z,100871.44
2023-01-28T05:01:18.041Z,100864.84
2023-01-28T05:06:20.082Z,100882.28
2023-01-28T05:11:22.191Z,100889.31
2023-01-28T05:16:28.956Z,100896.72
2023-01-28T05:21:32.106Z,100894.69
2023-01-28T05:26:37.720Z,100902.81
2023-01-28T05:31:40.139Z,100902.19
2023-01-28T05:36:42.171Z,100904.03
2023-01-28T05:41:59.860Z,100912.63
2023-01-28T05:47:02.083Z,100919.06
2023-01-28T05:52:20.436Z,100923.97
2023-01-28T05:57:22.612Z,100928.44
2023-01-28T06:02:25.573Z,100933.72
2023-01-28T06:07:30.721Z,100934.91
2023-01-28T06:12:32.868Z,100943.59
2023-01-28T06:17:57.304Z,100957.50
2023-01-28T06:23:04.161Z,100964.94
2023-01-28T06:28:05.961Z,100972.34
2023-01-28T06:33:07.588Z,100978.31
2023-01-28T06:38:09.517Z,100986.50
2023-01-28T06:43:11.170Z,100989.91
2023-01-28T06:48:12.865Z,100995.06
2023-01-28T06:53:15.170Z,101000.13
2023-01-28T06:58:17.023Z,101009.84
2023-01-28T07:03:18.687Z,101010.16
2023-01-28T07:08:20.483Z,101019.28
2023-01-28T07:13:22.192Z,101017.88
2023-01-28T07:18:24.131Z,101019.06
2023-01-28T07:23:27.699Z,101021.19
2023-01-28T07:28:30.827Z,101023.38
2023-01-28T07:33:32.440Z,101029.25
2023-01-28T07:38:34.060Z,101030.28
2023-01-28T07:43:35.682Z,101028.50
2023-01-28T07:48:37.367Z,101023.03
2023-01-28T07:53:39.163Z,101034.75
2023-01-28T07:58:40.788Z,101032.16
2023-01-28T08:03:42.404Z,101036.88
2023-01-28T08:08:44.014Z,101035.75
2023-01-28T08:13:45.665Z,101035.78
2023-01-28T08:18:47.265Z,101040.63
2023-01-28T08:23:48.957Z,101038.88
2023-01-28T08:28:51.601Z,101040.75
2023-01-28T08:33:53.396Z,101037.06
2023-01-28T08:38:55.302Z,101046.41
2023-01-28T08:43:57.083Z,101053.31
2023-01-28T08:48:58.760Z,101061.22
2023-01-28T08:54:00.843Z,101056.47
2023-01-28T08:59:02.492Z,101058.84
2023-01-28T09:04:04.208Z,101068.16
2023-01-28T09:09:05.916Z,101062.00
2023-01-28T09:14:07.627Z,101075.00
2023-01-28T09:19:10.907Z,101074.16
2023-01-28T09:24:12.598Z,101081.34
2023-01-28T09:29:14.309Z,101077.75
2023-01-28T09:34:16.054Z,101088.59
2023-01-28T09:39:17.772Z,101086.97
2023-01-28T09:44:34.587Z,101080.03
2023-01-28T09:49:48.410Z,101080.50
2023-01-28T09:54:55.456Z,101086.78
2023-01-28T09:59:57.591Z,101087.66
2023-01-28T10:05:23.184Z,101089.16
2023-01-28T10:10:46.537Z,101087.47
2023-01-28T10:15:58.477Z,101095.50
2023-01-28T10:21:11.147Z,101098.84
2023-01-28T10:26:24.263Z,101097.47
2023-01-28T10:31:36.751Z,101104.91
2023-01-28T10:36:38.728Z,101097.66
2023-01-28T10:41:55.711Z,101112.84
2023-01-28T10:47:11.008Z,101114.31
2023-01-28T10:52:14.703Z,101125.28
2023-01-28T10:57:18.914Z,101124.28
2023-01-28T11:02:32.638Z,101126.94
2023-01-28T11:07:34.714Z,101121.28
2023-01-28T11:12:36.412Z,101117.38
2023-01-28T11:17:39.314Z,101120.06
2023-01-28T11:22:45.215Z,101120.06
2023-01-28T11:27:49.169Z,101119.47
2023-01-28T11:33:22.487Z,101115.19
2023-01-28T11:38:26.185Z,101112.13
2023-01-28T11:43:30.294Z,101104.44
2023-01-28T11:48:48.201Z,101092.63
2023-01-28T11:54:02.645Z,101090.34
2023-01-28T11:59:04.688Z,101091.41
2023-01-28T12:04:15.314Z,101100.47
2023-01-28T12:09:48.944Z,101091.94
2023-01-28T12:14:59.935Z,101085.00
2023-01-28T12:20:31.313Z,101087.91
2023-01-28T12:25:52.135Z,101085.91
2023-01-28T12:31:02.912Z,101084.41
2023-01-28T12:36:13.594Z,101066.75
2023-01-28T12:41:23.633Z,101073.78
2023-01-28T12:46:47.117Z,101072.31
2023-01-28T12:51:51.517Z,101064.34
2023-01-28T12:56:55.631Z,101064.44
2023-01-28T13:02:14.687Z,101070.34
2023-01-28T13:07:34.931Z,101066.75
2023-01-28T13:12:40.601Z,101063.00
2023-01-28T13:17:54.619Z,101070.44
2023-01-28T13:23:21.855Z,101068.50
2023-01-28T13:28:33.471Z,101074.97
2023-01-28T13:33:38.295Z,101061.94
2023-01-28T13:38:40.270Z,101072.88
2023-01-28T13:43:42.740Z,101085.16
2023-01-28T13:48:52.304Z,101074.75
2023-01-28T13:54:00.711Z,101075.34
2023-01-28T13:59:02.265Z,101088.34
2023-01-28T14:04:28.591Z,101091.94
2023-01-28T14:09:30.242Z,101101.09
2023-01-28T14:15:04.645Z,101098.72
2023-01-28T14:20:20.542Z,101111.66
2023-01-28T14:25:43.118Z,101110.16
2023-01-28T14:30:55.957Z,101107.53
2023-01-28T14:35:57.661Z,101110.78
2023-01-28T14:40:59.366Z,101110.38
2023-01-28T14:46:16.381Z,101099.16
2023-01-28T14:51:35.814Z,101099.72
2023-01-28T14:56:37.534Z,101107.09
2023-01-28T15:01:44.809Z,101104.47
2023-01-28T15:06:46.351Z,101101.94
2023-01-28T15:11:52.218Z,101105.09
2023-01-28T15:16:54.948Z,101098.75
2023-01-28T15:22:05.634Z,101107.56
2023-01-28T15:27:15.282Z,101100.09
2023-01-28T15:32:27.577Z,101099.16
2023-01-28T15:37:29.207Z,101083.75
2023-01-28T15:42:31.842Z,101084.88
2023-01-28T15:47:35.307Z,101077.75
2023-01-28T15:52:40.713Z,101075.88
2023-01-28T15:57:42.338Z,101082.06
2023-01-28T16:02:47.168Z,101066.72
2023-01-28T16:07:49.034Z,101072.97
2023-01-28T16:12:53.199Z,101065.25
2023-01-28T16:17:54.976Z,101064.88
2023-01-28T16:23:02.483Z,101057.75
2023-01-28T16:28:17.181Z,101074.09
2023-01-28T16:33:21.975Z,101076.78
2023-01-28T16:38:23.641Z,101094.94
2023-01-28T16:43:25.258Z,101092.22
2023-01-28T16:48:26.955Z,101093.28
2023-01-28T16:53:33.560Z,101085.41
2023-01-28T16:58:35.504Z,101088.53
2023-01-28T17:03:37.674Z,101084.56
2023-01-28T17:08:40.452Z,101096.22
2023-01-28T17:13:42.029Z,101094.00
2023-01-28T17:18:43.669Z,101112.28
2023-01-28T17:23:45.518Z,101123.22
2023-01-28T17:28:53.059Z,101124.78
2023-01-28T17:33:56.354Z,101140.31
2023-01-28T17:38:58.020Z,101140.72
2023-01-28T17:43:59.876Z,101149.91
2023-01-28T17:49:02.989Z,101154.34
2023-01-28T17:54:04.911Z,101153.59
2023-01-28T17:59:07.004Z,101159.91
2023-01-28T18:04:10.175Z,101157.75
2023-01-28T18:09:13.103Z,101160.16
2023-01-28T18:14:19.433Z,101145.88
2023-01-28T18:19:21.945Z,101137.19
2023-01-28T18:24:25.227Z,101142.19
2023-01-28T18:29:28.687Z,101163.69
2023-01-28T18:34:31.629Z,101159.94
2023-01-28T18:39:33.406Z,101159.31
2023-01-28T18:44:35.184Z,101158.97
2023-01-28T18:49:36.878Z,101182.00
2023-01-28T18:54:38.645Z,101189.66
2023-01-28T18:59:40.552Z,101193.00
2023-01-28T19:04:42.936Z,101210.38
2023-01-28T19:09:44.719Z,101218.94
2023-01-28T19:14:47.517Z,101235.28
2023-01-28T19:19:50.370Z,101237.53
2023-01-28T19:24:52.796Z,101231.91
2023-01-28T19:29:54.800Z,101231.09
2023-01-28T19:34:56.488Z,101225.38
2023-01-28T19:39:58.241Z,101214.41
2023-01-28T19:45:01.422Z,101201.09
2023-01-28T19:50:08.585Z,101201.75
2023-01-28T19:55:10.606Z,101206.22
2023-01-28T20:00:12.719Z,101203.03
2023-01-28T20:05:15.224Z,101201.16
2023-01-28T20:10:18.110Z,101194.34
2023-01-28T20:15:19.791Z,101176.84
2023-01-28T20:20:21.705Z,101183.94
2023-01-28T20:25:23.358Z,101175.13
2023-01-28T20:30:26.966Z,101163.63
2023-01-28T20:35:28.631Z,101159.06
2023-01-28T20:40:31.472Z,101154.47
2023-01-28T20:45:36.059Z,101144.41
2023-01-28T20:50:37.880Z,101160.50
2023-01-28T20:55:39.651Z,101158.84
2023-01-28T21:00:41.345Z,101162.38
2023-01-28T21:05:47.507Z,101172.81
2023-01-28T21:10:49.512Z,101179.31
2023-01-28T21:15:53.318Z,101185.22
2023-01-28T21:20:55.118Z,101201.44
2023-01-28T21:26:01.834Z,101203.75
2023-01-28T21:31:17.210Z,101201.66
2023-01-28T21:36:43.410Z,101215.78
2023-01-28T21:41:47.818Z,101202.22
2023-01-28T21:46:49.905Z,101210.19
2023-01-28T21:51:51.892Z,101207.06
2023-01-28T21:56:53.702Z,101207.34
2023-01-28T22:02:00.205Z,101201.31
2023-01-28T22:07:05.901Z,101194.25
2023-01-28T22:12:08.243Z,101204.59
2023-01-28T22:17:11.770Z,101197.56
2023-01-28T22:22:15.283Z,101190.00
2023-01-28T22:27:16.956Z,101179.09
2023-01-28T22:32:18.809Z,101184.69
2023-01-28T22:37:20.512Z,101174.59
2023-01-28T22:42:22.154Z,101163.56
2023-01-28T22:47:23.882Z,101171.19
2023-01-28T22:52:25.656Z,101171.09
2023-01-28T22:57:27.345Z,101161.81
2023-01-28T23:02:29.202Z,101166.19
2023-01-28T23:07:31.113Z,101163.81
2023-01-28T23:12:33.006Z,101168.56
2023-01-28T23:17:53.131Z,101179.78
2023-01-28T23:23:13.377Z,101178.03
2023-01-28T23:28:15.688Z,101167.69
2023-01-28T23:33:17.371Z,101162.19
2023-01-28T23:38:19.057Z,101159.91
2023-01-28T23:43:21.195Z,101170.25
2023-01-28T23:48:22.849Z,101170.16
2023-01-28T23:53:24.501Z,101168.84
2023-01-28T23:58:42.184Z,101159.59
